createdAt,value
2022-08-07T00:00:41.610Z,47.30
2022-08-07T00:01:44.099Z,46.29
2022-08-07T00:02:44.673Z,46.99
2022-08-07T00:03:47.199Z,46.69
2022-08-07T00:04:41.668Z,46.09
2022-08-07T00:05:41.567Z,47.30
2022-08-07T00:06:51.662Z,46.89
2022-08-07T00:07:41.817Z,46.89
2022-08-07T00:08:44.281Z,46.79
2022-08-07T00:09:50.192Z,46.69
2022-08-07T00:10:48.146Z,46.49
2022-08-07T00:11:53.956Z,46.09
2022-08-07T00:12:56.267Z,46.59
2022-08-07T00:13:44.711Z,48.21
2022-08-07T00:14:41.463Z,46.69
2022-08-07T00:15:46.853Z,46.89
2022-08-07T00:16:41.650Z,48.10
2022-08-07T00:17:41.448Z,47.30
2022-08-07T00:18:41.448Z,46.99
2022-08-07T00:20:01.498Z,45.98
2022-08-07T00:20:41.399Z,46.81
2022-08-07T00:21:55.946Z,45.38
2022-08-07T00:22:42.211Z,46.59
2022-08-07T00:23:41.374Z,47.02
2022-08-07T00:24:41.356Z,47.32
2022-08-07T00:25:41.723Z,46.92
2022-08-07T00:26:59.014Z,46.61
2022-08-07T00:27:53.512Z,46.41
2022-08-07T00:28:45.593Z,47.62
2022-08-07T00:29:41.307Z,47.42
2022-08-07T00:30:41.293Z,47.32
2022-08-07T00:31:42.220Z,46.41
2022-08-07T00:32:41.905Z,47.32
2022-08-07T00:33:41.619Z,46.51
2022-08-07T00:34:41.250Z,47.92
2022-08-07T00:35:41.233Z,46.51
2022-08-07T00:36:43.040Z,47.52
2022-08-07T00:37:47.600Z,48.13
2022-08-07T00:38:41.230Z,46.81
2022-08-07T00:39:45.226Z,48.83
2022-08-07T00:40:41.293Z,48.13
2022-08-07T00:41:45.392Z,48.63
2022-08-07T00:42:41.172Z,47.12
2022-08-07T00:44:01.466Z,47.52
2022-08-07T00:44:41.378Z,47.82
2022-08-07T00:45:41.292Z,47.62
2022-08-07T00:46:41.119Z,46.81
2022-08-07T00:48:09.476Z,46.94
2022-08-07T00:48:42.033Z,48.13
2022-08-07T00:50:19.338Z,47.72
2022-08-07T00:50:51.320Z,48.43
2022-08-07T00:51:57.435Z,47.32
2022-08-07T00:52:41.196Z,47.92
2022-08-07T00:53:50.265Z,48.63
2022-08-07T00:54:41.045Z,47.42
2022-08-07T00:56:00.524Z,47.42
2022-08-07T00:56:41.014Z,46.41
2022-08-07T00:57:44.402Z,49.24
2022-08-07T00:58:41.237Z,46.92
2022-08-07T00:59:41.513Z,49.33
2022-08-07T01:00:43.030Z,47.72
2022-08-07T01:01:44.736Z,47.02
2022-08-07T01:02:41.001Z,47.32
2022-08-07T01:03:56.617Z,47.12
2022-08-07T01:04:43.214Z,47.82
2022-08-07T01:05:40.924Z,47.82
2022-08-07T01:06:40.929Z,47.32
2022-08-07T01:07:40.897Z,47.52
2022-08-07T01:08:51.554Z,46.43
2022-08-07T01:10:07.126Z,47.95
2022-08-07T05:02:16.935Z,51.53
2022-08-07T05:03:16.708Z,52.03
2022-08-07T05:04:17.853Z,52.33
2022-08-07T05:05:52.138Z,51.93
2022-08-07T05:06:19.649Z,51.93
2022-08-07T05:07:20.545Z,52.44
2022-08-07T05:08:14.752Z,52.13
2022-08-07T05:09:14.729Z,52.33
2022-08-07T05:10:14.728Z,51.93
2022-08-07T05:11:19.475Z,51.62
2022-08-07T05:12:15.627Z,52.64
2022-08-07T05:14:52.591Z,52.03
2022-08-07T05:15:04.814Z,52.03
2022-08-07T05:15:14.664Z,51.73
2022-08-07T05:16:14.698Z,52.03
2022-08-07T05:17:50.442Z,51.83
2022-08-07T05:18:14.632Z,52.74
2022-08-07T05:19:14.621Z,51.62
2022-08-07T05:20:14.631Z,51.83
2022-08-07T05:21:15.337Z,51.73
2022-08-07T05:22:27.620Z,51.73
2022-08-07T05:23:16.009Z,51.22
2022-08-07T05:24:14.575Z,51.22
2022-08-07T05:25:26.259Z,51.62
2022-08-07T05:26:23.741Z,51.81
2022-08-07T05:28:03.323Z,51.70
2022-08-07T05:28:26.954Z,52.01
2022-08-07T05:29:14.505Z,51.90
2022-08-07T05:30:14.500Z,51.70
2022-08-07T05:31:16.680Z,52.01
2022-08-07T05:32:14.499Z,51.09
2022-08-07T05:33:14.471Z,52.01
2022-08-07T05:34:15.710Z,50.99
2022-08-07T05:35:14.455Z,51.50
2022-08-07T05:36:22.666Z,52.31
2022-08-07T05:37:14.431Z,51.09
2022-08-07T05:39:01.140Z,51.50
2022-08-07T05:40:17.702Z,51.09
2022-08-07T05:40:23.864Z,51.60
2022-08-07T05:41:21.825Z,50.79
2022-08-07T05:42:34.688Z,51.37
2022-08-07T05:43:19.536Z,51.88
2022-08-07T05:44:29.330Z,51.17
2022-08-07T05:45:46.249Z,51.78
2022-08-07T05:46:19.498Z,50.97
2022-08-07T05:47:19.501Z,51.68
2022-08-07T05:48:19.471Z,51.17
2022-08-07T05:49:19.457Z,51.28
2022-08-07T05:50:19.446Z,50.97
2022-08-07T05:51:19.478Z,51.17
2022-08-07T05:52:20.242Z,50.87
2022-08-07T05:54:13.598Z,50.46
2022-08-07T05:54:53.410Z,50.37
2022-08-07T05:55:19.396Z,50.84
2022-08-07T05:56:19.392Z,50.14
2022-08-07T05:57:19.438Z,50.64
2022-08-07T05:58:19.359Z,51.45
2022-08-07T05:59:19.357Z,50.95
2022-08-07T06:00:19.337Z,50.95
2022-08-07T06:01:19.371Z,50.34
2022-08-07T06:02:28.797Z,50.84
2022-08-07T06:03:19.334Z,51.15
2022-08-07T06:04:19.313Z,50.54
2022-08-07T06:05:19.652Z,51.25
2022-08-07T06:06:19.289Z,50.34
2022-08-07T06:07:22.979Z,50.64
2022-08-07T06:08:30.922Z,50.64
2022-08-07T06:09:19.248Z,49.93
2022-08-07T06:10:19.250Z,50.64
2022-08-07T06:11:19.219Z,50.04
2022-08-07T06:12:21.150Z,51.32
2022-08-07T06:13:19.199Z,51.23
2022-08-07T06:14:21.211Z,50.12
2022-08-07T06:15:19.956Z,49.81
2022-08-07T06:16:19.187Z,50.01
2022-08-07T06:17:19.162Z,50.01
2022-08-07T06:18:19.145Z,50.12
2022-08-07T06:19:57.531Z,50.21
2022-08-07T06:20:31.717Z,50.32
2022-08-07T06:22:14.425Z,49.41
2022-08-07T06:22:27.597Z,49.71
2022-08-07T06:23:45.799Z,50.09
2022-08-07T06:24:46.379Z,49.99
2022-08-07T06:25:19.067Z,49.38
2022-08-07T06:26:19.057Z,49.58
2022-08-07T06:27:22.933Z,50.49
2022-08-07T06:28:19.052Z,49.28
2022-08-07T06:29:19.023Z,49.79
2022-08-07T06:30:36.161Z,50.39
2022-08-07T06:31:19.005Z,49.38
2022-08-07T06:32:18.991Z,49.99
2022-08-07T06:33:18.986Z,49.48
2022-08-07T06:34:19.624Z,50.19
2022-08-07T06:35:18.955Z,49.99
2022-08-07T06:36:35.000Z,49.38
2022-08-07T06:37:20.399Z,49.69
2022-08-07T06:38:19.894Z,49.87
2022-08-07T06:40:17.476Z,49.96
2022-08-07T06:40:27.840Z,49.46
2022-08-07T06:41:18.896Z,49.66
2022-08-07T06:42:18.881Z,49.26
2022-08-07T06:43:20.950Z,49.66
2022-08-07T06:44:18.879Z,49.87
2022-08-07T06:45:18.845Z,49.26
2022-08-07T06:46:20.403Z,49.36
2022-08-07T06:47:18.831Z,49.56
2022-08-07T06:48:25.136Z,49.76
2022-08-07T06:49:18.826Z,49.24
2022-08-07T06:50:19.132Z,49.94
2022-08-07T06:51:31.341Z,49.33
2022-08-07T06:52:18.778Z,50.35
2022-08-07T06:54:12.106Z,49.94
2022-08-07T06:55:53.707Z,49.44
2022-08-07T06:56:07.550Z,49.04
2022-08-07T06:56:50.014Z,49.04
2022-08-07T06:57:50.948Z,48.53
2022-08-07T07:00:12.382Z,48.10
2022-08-07T07:00:22.048Z,48.91
2022-08-07T07:00:48.985Z,48.71
2022-08-07T07:01:50.869Z,48.41
2022-08-07T07:02:54.553Z,48.00
2022-08-07T07:03:57.205Z,48.10
2022-08-07T07:04:54.943Z,48.30
2022-08-07T07:06:04.026Z,48.81
2022-08-07T07:07:00.265Z,48.30
2022-08-07T07:07:59.717Z,48.30
2022-08-07T07:08:48.908Z,48.71
2022-08-07T07:09:48.884Z,48.08
2022-08-07T07:10:56.710Z,48.08
2022-08-07T07:12:10.611Z,48.18
2022-08-07T07:12:53.373Z,48.28
2022-08-07T07:13:57.865Z,47.27
2022-08-07T07:14:48.837Z,47.67
2022-08-07T07:15:51.522Z,46.77
2022-08-07T07:16:50.760Z,46.97
2022-08-07T07:17:50.524Z,47.17
2022-08-07T07:18:48.891Z,47.15
2022-08-07T07:19:57.935Z,46.95
2022-08-07T07:20:48.771Z,46.55
2022-08-07T07:22:04.621Z,47.25
2022-08-07T07:24:05.598Z,46.75
2022-08-07T07:24:14.422Z,45.94
2022-08-07T07:24:58.544Z,46.75
2022-08-07T07:26:34.831Z,46.95
2022-08-07T07:26:52.019Z,45.84
2022-08-07T07:27:55.562Z,46.02
2022-08-07T07:29:40.117Z,46.02
2022-08-07T07:30:10.087Z,45.01
2022-08-07T07:30:48.664Z,45.42
2022-08-07T07:31:48.663Z,45.21
2022-08-07T07:32:48.632Z,45.01
2022-08-07T07:33:49.033Z,45.21
2022-08-07T07:34:48.837Z,45.62
2022-08-07T07:36:04.503Z,45.42
2022-08-07T07:36:54.004Z,45.32
2022-08-07T07:37:59.196Z,44.69
2022-08-07T07:38:48.568Z,46.40
2022-08-07T07:39:54.649Z,45.29
2022-08-07T07:40:48.555Z,45.79
2022-08-07T07:41:50.789Z,45.19
2022-08-07T07:42:53.887Z,45.39
2022-08-07T07:44:16.757Z,45.29
2022-08-07T07:44:49.594Z,45.39
2022-08-07T07:46:40.152Z,45.29
2022-08-07T07:47:23.654Z,45.29
2022-08-07T07:47:52.451Z,45.37
2022-08-07T07:48:48.471Z,44.97
2022-08-07T07:50:34.012Z,44.97
2022-08-07T07:50:48.440Z,44.87
2022-08-07T07:51:58.009Z,45.87
2022-08-07T07:52:48.415Z,45.67
2022-08-07T07:53:52.596Z,45.47
2022-08-07T07:54:51.160Z,45.78
2022-08-07T07:55:54.789Z,45.98
2022-08-07T07:56:48.374Z,45.65
2022-08-07T07:57:53.386Z,46.15
2022-08-07T07:58:48.359Z,45.55
2022-08-07T07:59:51.798Z,45.65
2022-08-07T08:00:53.761Z,44.95
2022-08-07T08:02:02.263Z,45.25
2022-08-07T08:03:04.522Z,45.25
2022-08-07T08:04:10.016Z,45.65
2022-08-07T08:04:50.432Z,45.05
2022-08-07T08:05:55.016Z,45.86
2022-08-07T08:06:52.349Z,45.13
2022-08-07T08:08:00.050Z,45.03
2022-08-07T08:08:48.371Z,45.03
2022-08-07T08:09:52.312Z,44.73
2022-08-07T08:10:48.244Z,45.13
2022-08-07T08:11:59.129Z,44.43
2022-08-07T08:12:59.266Z,45.23
2022-08-07T08:13:54.504Z,44.53
2022-08-07T08:14:48.178Z,44.83
2022-08-07T08:15:58.932Z,44.73
2022-08-07T08:16:49.398Z,44.71
2022-08-07T08:18:17.665Z,44.31
2022-08-07T08:18:50.470Z,45.01
2022-08-07T08:20:18.551Z,44.60
2022-08-07T08:20:48.117Z,44.20
2022-08-07T08:21:55.541Z,44.10
2022-08-07T08:22:55.680Z,43.50
2022-08-07T08:23:48.090Z,43.48
2022-08-07T08:24:48.075Z,43.18
2022-08-07T08:25:48.968Z,42.88
2022-08-07T08:26:50.474Z,42.78
2022-08-07T08:27:56.060Z,43.08
2022-08-07T08:28:48.039Z,43.48
2022-08-07T08:29:55.500Z,43.18
2022-08-07T08:30:51.111Z,42.97
2022-08-07T08:32:16.769Z,43.58
2022-08-07T08:32:49.106Z,42.86
2022-08-07T08:33:49.353Z,43.16
2022-08-07T08:34:47.955Z,42.55
2022-08-07T08:35:50.953Z,42.25
2022-08-07T08:36:47.943Z,43.26
2022-08-07T08:38:00.966Z,42.16
2022-08-07T08:38:47.917Z,42.16
2022-08-07T08:39:55.229Z,42.66
2022-08-07T08:40:47.905Z,42.66
2022-08-07T08:41:57.403Z,42.24
2022-08-07T08:42:47.882Z,41.93
2022-08-07T08:43:58.673Z,42.13
2022-08-07T08:44:47.855Z,42.03
2022-08-07T08:45:59.003Z,42.33
2022-08-07T08:46:47.872Z,41.93
2022-08-07T08:47:54.619Z,41.83
2022-08-07T08:48:50.964Z,42.54
2022-08-07T08:50:02.971Z,43.04
2022-08-07T08:50:47.787Z,42.74
2022-08-07T08:52:12.799Z,41.74
2022-08-07T08:52:53.680Z,42.44
2022-08-07T08:53:47.764Z,41.51
2022-08-07T08:54:47.752Z,42.32
2022-08-07T08:55:54.730Z,42.41
2022-08-07T08:56:48.001Z,42.21
2022-08-07T08:57:47.714Z,41.91
2022-08-07T08:58:47.731Z,41.71
2022-08-07T08:59:48.020Z,42.10
2022-08-07T09:00:48.647Z,41.49
2022-08-07T09:01:49.566Z,42.10
2022-08-07T09:02:52.392Z,41.49
2022-08-07T09:03:52.657Z,41.89
2022-08-07T09:04:47.656Z,41.79
2022-08-07T09:05:47.781Z,41.99
2022-08-07T09:06:48.216Z,41.89
2022-08-07T09:07:58.180Z,41.29
2022-08-07T09:08:47.643Z,41.49
2022-08-07T09:09:47.753Z,42.19
2022-08-07T09:10:47.575Z,41.09
2022-08-07T09:11:53.357Z,41.49
2022-08-07T09:12:53.628Z,41.29
2022-08-07T09:13:47.552Z,41.29
2022-08-07T09:14:50.997Z,42.97
2022-08-07T09:16:25.606Z,41.57
2022-08-07T09:16:47.740Z,42.18
2022-08-07T09:17:59.576Z,41.57
2022-08-07T09:18:53.415Z,43.18
2022-08-07T09:19:51.096Z,41.67
2022-08-07T09:20:58.572Z,41.77
2022-08-07T09:22:10.072Z,41.67
2022-08-07T09:24:52.405Z,41.27
2022-08-07T09:25:07.027Z,42.38
2022-08-07T09:25:20.302Z,41.85
2022-08-07T09:26:13.854Z,42.05
2022-08-07T09:27:13.835Z,41.85
2022-08-07T09:30:00.793Z,41.35
2022-08-07T09:30:09.031Z,42.25
2022-08-07T09:30:14.146Z,41.66
2022-08-07T09:31:15.400Z,41.43
2022-08-07T09:32:16.989Z,41.24
2022-08-07T09:33:24.225Z,41.24
2022-08-07T09:34:14.110Z,41.93
2022-08-07T09:36:01.364Z,42.33
2022-08-07T09:36:14.077Z,42.03
2022-08-07T09:37:14.070Z,41.24
2022-08-07T09:38:14.050Z,41.24
2022-08-07T09:39:52.464Z,41.24
2022-08-07T09:40:14.098Z,41.13
2022-08-07T09:41:14.050Z,41.13
2022-08-07T09:42:17.175Z,41.43
2022-08-07T09:43:14.641Z,41.63
2022-08-07T09:44:19.930Z,41.63
2022-08-07T09:47:42.521Z,41.11
2022-08-07T09:48:06.161Z,41.11
2022-08-07T09:48:19.066Z,40.91
2022-08-07T09:50:01.622Z,41.71
2022-08-07T09:50:19.111Z,42.41
2022-08-07T09:51:25.905Z,41.71
2022-08-07T09:52:34.473Z,41.82
2022-08-07T09:53:12.590Z,42.02
2022-08-07T09:54:16.337Z,41.39
2022-08-07T09:55:16.899Z,40.30
2022-08-07T09:56:12.289Z,40.80
2022-08-07T09:57:12.927Z,41.39
2022-08-07T09:58:12.052Z,40.69
2022-08-07T09:59:14.103Z,41.39
2022-08-07T10:00:14.685Z,40.00
2022-08-07T10:01:50.359Z,40.69
2022-08-07T10:02:12.015Z,40.00
2022-08-07T10:04:05.571Z,40.39
2022-08-07T10:04:32.577Z,40.17
2022-08-07T10:05:12.692Z,40.37
2022-08-07T10:06:12.512Z,39.98
2022-08-07T10:07:25.900Z,40.59
2022-08-07T10:08:11.944Z,40.58
2022-08-07T10:09:15.240Z,39.87
2022-08-07T10:10:21.847Z,39.87
2022-08-07T10:11:16.771Z,40.28
2022-08-07T10:12:18.110Z,40.97
2022-08-07T10:13:15.897Z,41.08
2022-08-07T10:14:11.894Z,40.97
2022-08-07T10:15:15.345Z,39.87
2022-08-07T10:16:11.881Z,40.17
2022-08-07T10:17:14.122Z,40.66
2022-08-07T10:18:11.906Z,39.65
2022-08-07T10:19:11.819Z,40.16
2022-08-07T10:20:12.887Z,40.25
2022-08-07T10:21:19.971Z,39.26
2022-08-07T10:22:17.352Z,39.84
2022-08-07T10:23:11.789Z,40.04
2022-08-07T10:24:12.819Z,38.64
2022-08-07T10:25:11.755Z,40.14
2022-08-07T10:26:11.750Z,38.64
2022-08-07T10:27:11.738Z,38.84
2022-08-07T10:28:12.701Z,37.64
2022-08-07T10:29:11.710Z,37.94
2022-08-07T10:30:12.003Z,37.02
2022-08-07T10:31:11.694Z,37.52
2022-08-07T10:32:33.336Z,37.92
2022-08-07T10:33:14.955Z,37.32
2022-08-07T10:34:17.817Z,37.42
2022-08-07T10:35:12.443Z,37.42
2022-08-07T10:36:12.520Z,38.50
2022-08-07T10:37:12.391Z,38.31
2022-08-07T10:38:35.261Z,38.10
2022-08-07T10:39:11.677Z,38.20
2022-08-07T10:40:12.623Z,37.90
2022-08-07T10:41:11.592Z,38.10
2022-08-07T10:42:21.302Z,37.79
2022-08-07T10:43:11.586Z,38.18
2022-08-07T10:44:11.559Z,36.89
2022-08-07T10:45:11.564Z,37.29
2022-08-07T10:46:11.539Z,36.69
2022-08-07T10:47:13.969Z,37.19
2022-08-07T10:48:11.515Z,35.88
2022-08-07T10:49:11.507Z,35.68
2022-08-07T10:50:11.502Z,35.68
2022-08-07T10:51:16.887Z,35.68
2022-08-07T10:52:13.792Z,35.38
2022-08-07T10:53:11.467Z,34.48
2022-08-07T10:54:11.447Z,34.38
2022-08-07T10:55:20.798Z,35.08
2022-08-07T10:56:20.985Z,34.28
2022-08-07T10:57:11.438Z,34.98
2022-08-07T10:58:11.427Z,34.88
2022-08-07T10:59:13.518Z,34.86
2022-08-07T11:00:36.460Z,34.16
2022-08-07T11:01:12.358Z,34.66
2022-08-07T11:02:12.552Z,35.26
2022-08-07T11:03:12.643Z,34.86
2022-08-07T11:04:31.391Z,34.96
2022-08-07T11:05:11.330Z,33.75
2022-08-07T11:06:11.312Z,33.05
2022-08-07T11:07:14.942Z,33.23
2022-08-07T11:08:11.771Z,32.84
2022-08-07T11:09:11.663Z,34.63
2022-08-07T11:10:12.507Z,33.63
2022-08-07T11:11:11.286Z,34.01
2022-08-07T11:12:11.269Z,33.12
2022-08-07T11:13:42.398Z,31.83
2022-08-07T11:15:00.600Z,33.12
2022-08-07T11:15:17.266Z,31.83
2022-08-07T11:16:11.209Z,31.73
2022-08-07T11:17:23.109Z,34.11
2022-08-07T11:18:12.662Z,33.62
2022-08-07T11:19:11.199Z,32.32
2022-08-07T11:20:11.185Z,31.93
2022-08-07T11:21:11.153Z,31.81
2022-08-07T11:22:26.339Z,31.91
2022-08-07T11:23:11.145Z,31.61
2022-08-07T11:24:11.136Z,31.50
2022-08-07T11:25:11.154Z,31.99
2022-08-07T11:26:12.937Z,31.99
2022-08-07T11:27:13.498Z,31.80
2022-08-07T11:28:15.344Z,30.99
2022-08-07T11:29:13.082Z,31.09
2022-08-07T11:30:18.227Z,30.69
2022-08-07T11:31:11.416Z,31.48
2022-08-07T11:32:11.032Z,31.48
2022-08-07T11:33:14.249Z,30.59
2022-08-07T11:34:11.028Z,30.79
2022-08-07T11:35:11.017Z,31.37
2022-08-07T11:36:11.026Z,31.17
2022-08-07T11:37:11.778Z,30.47
2022-08-07T11:38:17.225Z,30.77
2022-08-07T11:39:14.483Z,31.57
2022-08-07T11:40:11.086Z,30.26
2022-08-07T11:41:10.943Z,29.47
2022-08-07T11:42:16.849Z,30.66
2022-08-07T11:43:10.919Z,29.25
2022-08-07T11:44:14.266Z,29.65
2022-08-07T11:45:12.314Z,30.94
2022-08-07T11:46:10.920Z,30.44
2022-08-07T11:47:10.898Z,30.35
2022-08-07T11:48:18.045Z,29.95
2022-08-07T11:49:51.494Z,29.65
2022-08-07T11:50:35.399Z,29.44
2022-08-07T11:51:10.827Z,28.35
2022-08-07T11:52:10.827Z,28.83
2022-08-07T11:53:10.808Z,28.93
2022-08-07T11:54:10.818Z,28.34
2022-08-07T11:55:18.520Z,28.83
2022-08-07T11:56:27.518Z,28.52
2022-08-07T11:57:12.844Z,28.03
2022-08-07T11:58:16.350Z,27.83
2022-08-07T12:00:08.236Z,27.92
2022-08-07T12:00:28.365Z,27.33
2022-08-07T12:01:10.728Z,28.51
2022-08-07T12:02:20.655Z,27.32
2022-08-07T12:03:45.022Z,27.81
2022-08-07T12:04:10.718Z,27.31
2022-08-07T12:05:15.237Z,27.31
2022-08-07T12:06:39.774Z,27.70
2022-08-07T12:07:27.659Z,27.50
2022-08-07T12:08:25.443Z,27.70
2022-08-07T12:09:16.145Z,28.00
2022-08-07T12:10:10.649Z,27.40
2022-08-07T12:11:21.019Z,27.29
2022-08-07T12:12:12.181Z,27.19
2022-08-07T12:13:11.627Z,27.29
2022-08-07T12:14:10.591Z,27.79
2022-08-07T12:15:17.141Z,27.29
2022-08-07T12:16:10.577Z,27.49
2022-08-07T12:17:10.566Z,27.48
2022-08-07T12:18:11.418Z,27.48
2022-08-07T12:19:10.542Z,26.68
2022-08-07T12:20:20.843Z,26.28
2022-08-07T12:21:10.520Z,25.98
2022-08-07T12:22:37.239Z,26.57
2022-08-07T12:23:10.507Z,27.07
2022-08-07T12:24:37.644Z,26.48
2022-08-07T12:25:10.482Z,27.17
2022-08-07T12:26:28.634Z,26.57
2022-08-07T12:27:13.241Z,27.17
2022-08-07T12:28:11.135Z,25.78
2022-08-07T12:29:11.328Z,27.25
2022-08-07T12:30:10.422Z,25.87
2022-08-07T12:31:10.401Z,25.48
2022-08-07T12:32:13.099Z,25.67
2022-08-07T12:33:18.892Z,25.38
2022-08-07T12:34:10.397Z,25.56
2022-08-07T12:35:10.358Z,26.84
2022-08-07T12:36:10.978Z,25.56
2022-08-07T12:37:16.585Z,26.35
2022-08-07T12:38:16.933Z,24.87
2022-08-07T12:39:42.749Z,25.46
2022-08-07T12:40:36.192Z,25.15
2022-08-07T12:41:10.349Z,26.14
2022-08-07T12:42:10.297Z,25.95
2022-08-07T12:43:10.350Z,24.96
2022-08-07T12:44:13.095Z,25.35
2022-08-07T12:45:10.258Z,24.85
2022-08-07T12:46:10.267Z,25.14
2022-08-07T12:47:10.235Z,24.16
2022-08-07T12:48:13.045Z,24.65
2022-08-07T12:49:39.729Z,24.85
2022-08-07T12:50:38.352Z,24.54
2022-08-07T12:51:17.142Z,24.24
2022-08-07T12:52:14.011Z,25.03
2022-08-07T12:53:17.891Z,25.22
2022-08-07T12:54:37.030Z,24.53
2022-08-07T12:55:17.568Z,24.23
2022-08-07T12:56:10.191Z,23.64
2022-08-07T12:57:10.337Z,24.33
2022-08-07T12:58:10.119Z,23.44
2022-08-07T12:59:10.108Z,23.73
2022-08-07T13:00:16.437Z,23.24
2022-08-07T13:01:10.125Z,24.12
2022-08-07T13:02:10.349Z,22.64
2022-08-07T13:03:13.078Z,22.84
2022-08-07T13:04:10.087Z,23.63
2022-08-07T13:05:14.982Z,23.33
2022-08-07T13:06:21.865Z,24.62
2022-08-07T13:07:10.049Z,23.63
2022-08-07T13:08:14.096Z,23.42
2022-08-07T13:09:33.416Z,22.84
2022-08-07T13:10:39.683Z,22.15
2022-08-07T13:11:09.975Z,23.04
2022-08-07T13:12:13.250Z,23.24
2022-08-07T13:13:10.005Z,22.74
2022-08-07T13:14:09.947Z,23.22
2022-08-07T13:15:09.939Z,23.72
2022-08-07T13:16:09.923Z,23.22
2022-08-07T13:17:09.910Z,22.53
2022-08-07T13:18:09.900Z,22.92
2022-08-07T13:19:18.204Z,21.84
2022-08-07T13:20:09.891Z,23.31
2022-08-07T13:21:09.867Z,22.62
2022-08-07T13:22:19.656Z,22.42
2022-08-07T13:24:02.011Z,21.94
2022-08-07T13:24:11.449Z,22.41
2022-08-07T13:25:09.835Z,21.92
2022-08-07T13:26:15.724Z,22.22
2022-08-07T13:27:09.811Z,21.83
2022-08-07T13:28:13.128Z,21.83
2022-08-07T13:29:09.783Z,21.73
2022-08-07T13:30:19.144Z,21.62
2022-08-07T13:31:13.117Z,22.50
2022-08-07T13:32:31.224Z,22.20
2022-08-07T13:34:31.954Z,22.20
2022-08-07T13:34:39.309Z,22.41
2022-08-07T13:35:09.744Z,22.31
2022-08-07T13:36:09.723Z,22.70
2022-08-07T13:37:10.973Z,22.39
2022-08-07T13:38:09.714Z,22.59
2022-08-07T13:39:12.876Z,21.80
2022-08-07T13:40:34.884Z,21.61
2022-08-07T13:41:09.736Z,21.90
2022-08-07T13:42:09.656Z,22.19
2022-08-07T13:43:12.102Z,22.28
2022-08-07T13:44:10.465Z,21.59
2022-08-07T13:45:20.864Z,21.50
2022-08-07T13:46:25.599Z,22.19
2022-08-07T13:47:09.901Z,21.80
2022-08-07T13:48:10.636Z,21.50
2022-08-07T13:50:34.654Z,21.20
2022-08-07T13:51:01.459Z,21.59
2022-08-07T13:51:28.058Z,21.11
2022-08-07T13:52:31.801Z,20.72
2022-08-07T13:53:09.538Z,21.40
2022-08-07T13:54:09.535Z,21.98
2022-08-07T13:55:11.049Z,20.80
2022-08-07T13:56:09.507Z,21.09
2022-08-07T13:57:09.526Z,20.90
2022-08-07T13:58:09.484Z,20.61
2022-08-07T13:59:10.366Z,20.90
2022-08-07T14:00:13.409Z,20.90
2022-08-07T14:01:09.574Z,21.20
2022-08-07T14:02:10.167Z,20.91
2022-08-07T14:03:09.462Z,21.69
2022-08-07T14:04:09.484Z,20.91
2022-08-07T14:05:09.494Z,21.20
2022-08-07T14:06:09.409Z,21.11
2022-08-07T14:07:10.066Z,21.29
2022-08-07T14:08:09.391Z,21.19
2022-08-07T14:09:09.386Z,21.69
2022-08-07T14:10:21.543Z,21.49
2022-08-07T14:11:15.337Z,21.09
2022-08-07T14:12:10.463Z,21.39
2022-08-07T14:13:09.335Z,21.69
2022-08-07T14:14:09.327Z,20.90
2022-08-07T14:15:09.332Z,21.69
2022-08-07T14:16:15.352Z,20.89
2022-08-07T14:17:13.158Z,21.28
2022-08-07T14:18:28.610Z,21.09
2022-08-07T14:19:09.278Z,21.09
2022-08-07T14:20:41.883Z,21.09
2022-08-07T14:21:20.803Z,21.28
2022-08-07T14:22:10.793Z,20.40
2022-08-07T14:23:09.251Z,20.59
2022-08-07T14:24:09.281Z,20.10
2022-08-07T14:25:09.201Z,20.59
2022-08-07T14:26:09.197Z,21.09
2022-08-07T14:28:11.492Z,20.69
2022-08-07T14:28:17.568Z,21.17
2022-08-07T14:30:06.157Z,20.19
2022-08-07T14:30:27.742Z,20.19
2022-08-07T14:31:09.153Z,20.39
2022-08-07T14:32:09.159Z,20.29
2022-08-07T14:33:09.122Z,19.70
2022-08-07T14:34:10.091Z,20.18
2022-08-07T14:35:09.107Z,20.28
2022-08-07T14:36:09.111Z,20.57
2022-08-07T14:37:16.304Z,19.69
2022-08-07T14:38:09.120Z,19.98
2022-08-07T14:39:09.105Z,19.59
2022-08-07T14:40:15.655Z,19.29
2022-08-07T14:41:12.384Z,19.30
2022-08-07T15:52:02.575Z,19.29
2022-08-07T15:52:09.554Z,17.48
2022-08-07T15:53:07.546Z,17.58
2022-08-07T15:54:11.902Z,17.00
2022-08-07T15:55:09.063Z,17.99
2022-08-07T15:56:07.519Z,17.71
2022-08-07T15:57:07.522Z,18.11
2022-08-07T15:58:10.489Z,18.89
2022-08-07T15:59:07.490Z,17.72
2022-08-07T16:00:07.481Z,18.51
2022-08-07T16:01:07.503Z,18.31
2022-08-07T16:02:07.517Z,18.90
2022-08-07T16:03:08.548Z,18.42
2022-08-07T16:04:14.247Z,18.03
2022-08-07T16:05:15.297Z,18.52
2022-08-07T16:06:07.414Z,18.62
2022-08-07T16:08:28.259Z,18.54
2022-08-07T16:08:38.852Z,18.54
2022-08-07T16:09:07.673Z,18.15
2022-08-07T16:10:09.614Z,18.64
2022-08-07T16:11:26.914Z,18.85
2022-08-07T16:12:07.355Z,18.46
2022-08-07T16:13:17.441Z,19.06
2022-08-07T16:14:07.354Z,19.35
2022-08-07T16:15:07.317Z,19.46
2022-08-07T16:16:47.540Z,19.26
2022-08-07T16:17:15.994Z,19.56
2022-08-07T16:18:07.292Z,19.66
2022-08-07T16:19:09.519Z,20.06
2022-08-07T16:20:07.293Z,19.56
2022-08-07T16:22:01.457Z,19.96
2022-08-07T16:22:30.167Z,19.56
2022-08-07T16:23:09.893Z,19.77
2022-08-07T16:24:09.150Z,19.96
2022-08-07T16:25:07.738Z,20.07
2022-08-07T16:26:07.229Z,20.07
2022-08-07T16:27:17.915Z,20.18
2022-08-07T16:28:10.352Z,20.18
2022-08-07T16:30:11.879Z,20.18
2022-08-07T16:30:35.849Z,20.38
2022-08-07T16:31:10.028Z,20.48
2022-08-07T16:32:07.141Z,20.59
2022-08-07T16:34:01.304Z,20.59
2022-08-07T16:34:18.172Z,20.49
2022-08-07T16:35:50.271Z,20.98
2022-08-07T16:36:07.103Z,20.88
2022-08-07T16:38:05.673Z,20.98
2022-08-07T16:38:13.830Z,20.78
2022-08-07T16:39:10.085Z,20.59
2022-08-07T16:40:09.558Z,20.98
2022-08-07T16:41:07.148Z,20.59
2022-08-07T16:42:07.030Z,20.79
2022-08-07T16:43:07.027Z,20.99
2022-08-07T16:44:31.793Z,20.79
2022-08-07T16:45:14.982Z,21.29
2022-08-07T16:46:21.070Z,20.79
2022-08-07T16:47:16.732Z,20.89
2022-08-07T16:48:06.982Z,20.89
2022-08-07T16:50:28.095Z,21.29
2022-08-07T16:50:57.736Z,20.79
2022-08-07T16:51:57.842Z,21.30
2022-08-07T16:52:50.676Z,21.00
2022-08-07T16:53:55.595Z,21.00
2022-08-07T16:54:09.623Z,21.00
2022-08-07T16:55:08.361Z,21.30
2022-08-07T16:56:06.891Z,21.30
2022-08-07T16:57:06.881Z,21.20
2022-08-07T16:58:08.015Z,21.21
2022-08-07T16:59:14.484Z,21.31
2022-08-07T17:00:07.844Z,21.60
2022-08-07T17:01:07.943Z,21.41
2022-08-07T17:02:06.821Z,21.21
2022-08-07T17:03:07.025Z,21.31
2022-08-07T17:04:07.640Z,21.70
2022-08-07T17:05:06.795Z,21.21
2022-08-07T17:06:29.649Z,21.31
2022-08-07T17:07:06.796Z,21.61
2022-08-07T17:08:09.153Z,21.51
2022-08-07T17:09:10.924Z,21.61
2022-08-07T17:10:09.227Z,21.71
2022-08-07T17:11:06.746Z,21.61
2022-08-07T17:12:33.757Z,21.71
2022-08-07T17:13:08.438Z,21.91
2022-08-07T17:14:18.286Z,21.81
2022-08-07T17:15:06.685Z,22.41
2022-08-07T17:16:06.675Z,22.02
2022-08-07T17:17:06.686Z,22.30
2022-08-07T17:18:14.300Z,22.02
2022-08-07T17:19:06.641Z,22.12
2022-08-07T17:20:14.272Z,22.12
2022-08-07T17:21:18.583Z,22.31
2022-08-07T17:22:06.630Z,22.12
2022-08-07T17:23:11.471Z,22.22
2022-08-07T17:24:06.608Z,22.41
2022-08-07T17:25:08.202Z,22.61
2022-08-07T17:26:06.571Z,22.71
2022-08-07T17:27:06.586Z,22.52
2022-08-07T17:28:06.915Z,22.62
2022-08-07T17:29:06.551Z,22.62
2022-08-07T17:30:15.686Z,22.72
2022-08-07T17:31:16.619Z,23.11
2022-08-07T17:32:06.520Z,22.82
2022-08-07T17:33:39.037Z,22.62
2022-08-07T17:34:34.754Z,22.52
2022-08-07T17:35:50.301Z,23.11
2022-08-07T17:36:13.731Z,22.72
2022-08-07T17:37:14.417Z,22.72
2022-08-07T17:38:32.046Z,22.92
2022-08-07T17:39:10.645Z,22.92
2022-08-07T17:40:08.851Z,22.72
2022-08-07T17:42:00.643Z,22.62
2022-08-07T17:42:09.541Z,22.72
2022-08-07T17:43:15.072Z,22.52
2022-08-07T17:44:13.734Z,22.83
2022-08-07T17:45:06.371Z,22.53
2022-08-07T17:46:06.369Z,22.73
2022-08-07T17:47:08.459Z,22.53
2022-08-07T17:48:06.338Z,22.73
2022-08-07T17:49:08.968Z,22.83
2022-08-07T17:50:06.339Z,23.22
2022-08-07T17:51:06.329Z,22.83
2022-08-07T17:52:06.300Z,22.94
2022-08-07T17:53:06.362Z,22.94
2022-08-07T17:54:11.547Z,23.14
2022-08-07T17:55:06.276Z,23.33